Currituck — AEFR — position and weather

sailwx.info

Track history (hours):
 
Tides and Currents Weather Stations Pressure Air Temp Water Temp Dewpoint Dewpoint Depression Visibility Wind Speed Wind Dir Waves Ship Positions

Currituck

Last reported at 2014-Dec-19 13:30 UTC. Time now 2014-Dec-19 14:27 UTC.
Position N 40°11' W 074°00'.

Length 45 m; draft 3 m.

Type: Dredging. MMSI: 369970446.

Date/timePositionNaut miles runAvg speedWind from/ knotsBaromVisibWave heightAir tempDewpointWater temp
2014-Dec-19 13:30N 40°11' W 074°00'0 0.0
2014-Dec-19 12:30N 40°11' W 074°00'0 0.0
2014-Dec-19 11:32N 40°11' W 074°00'0 0.0
2014-Dec-19 10:32N 40°11' W 074°00'0 0.0
2014-Dec-19 07:28N 40°11' W 074°00'0 0.0
2014-Dec-19 05:25N 40°11' W 074°00'0 0.2
2014-Dec-19 04:27N 40°11' W 074°01'0 0.0
2014-Dec-19 02:05N 40°11' W 074°00'0 0.0
2014-Dec-19 01:19N 40°11' W 074°01'0 0.0
2014-Dec-19 00:27N 40°11' W 074°00'0 0.0
2014-Dec-18 22:25N 40°11' W 074°01'0 0.0
2014-Dec-18 15:12N 40°11' W 074°00'0 0.0
2014-Dec-18 13:09N 40°11' W 074°00'0 0.0
2014-Dec-18 12:29N 40°11' W 074°00'11 2.1
2014-Dec-18 07:20N 40°22' W 073°59'7 0.3
2014-Dec-17 09:20N 40°29' W 074°01'6 2.8
2014-Dec-17 07:09N 40°23' W 073°59'0 0.2
2014-Dec-17 06:14N 40°23' W 073°59'6 6.0
2014-Dec-17 05:13N 40°29' W 073°60'1 0.2
2014-Dec-17 01:33N 40°29' W 074°01'6 2.9
2014-Dec-16 23:28N 40°23' W 073°59'0 0.0
2014-Dec-16 22:29N 40°23' W 073°59'6 4.8
2014-Dec-16 21:14N 40°29' W 074°01'2 2.5
2014-Dec-16 20:27N 40°28' W 073°59'3 3.1
2014-Dec-16 19:33N 40°25' W 074°00'2 2.1
2014-Dec-16 18:27N 40°23' W 073°59'1 0.2
2014-Dec-16 15:06N 40°23' W 073°60'2 3.2
2014-Dec-16 14:33N 40°25' W 073°60'2 1.7
2014-Dec-16 13:31N 40°26' W 073°59'2 1.7
2014-Dec-16 12:33N 40°26' W 074°01'4 3.4
2014-Dec-16 11:31N 40°23' W 073°59'2 2.1
2014-Dec-16 10:33N 40°25' W 074°00'0 0.2
2014-Dec-16 08:19N 40°25' W 073°60'2 2.0
2014-Dec-16 07:24N 40°23' W 073°59'6 4.5
2014-Dec-16 06:05N 40°29' W 074°01'3 6.2
2014-Dec-16 05:33N 40°26' W 073°59'2 1.2
2014-Dec-16 04:06N 40°24' W 073°59'1 1.6
2014-Dec-16 03:24N 40°23' W 073°59'6 5.8
2014-Dec-16 02:25N 40°29' W 074°01'5 1.3
2014-Dec-15 22:27N 40°24' W 073°59'1 0.5
2014-Dec-15 20:27N 40°25' W 073°60'2 1.5
2014-Dec-15 19:21N 40°26' W 073°59'2 1.3
2014-Dec-15 18:03N 40°25' W 073°60'2 2.4
2014-Dec-15 17:21N 40°23' W 074°00'0 0.4
2014-Dec-15 16:10N 40°23' W 074°01'1 1.5
2014-Dec-15 15:33N 40°23' W 073°60'5 5.0
2014-Dec-15 14:28N 40°28' W 073°59'1 1.4
2014-Dec-15 13:29N 40°29' W 074°01'6 5.3
2014-Dec-15 12:20N 40°23' W 073°59'0 0.0
2014-Dec-15 11:27N 40°23' W 073°59'4 3.8
2014-Dec-15 10:20N 40°27' W 074°01'2 2.4
2014-Dec-15 09:34N 40°26' W 073°59'2 1.5
2014-Dec-15 08:28N 40°25' W 073°60'2 1.7
2014-Dec-15 07:19N 40°23' W 073°59'6 7.0
2014-Dec-15 06:26N 40°29' W 074°00'0 0.2
2014-Dec-15 05:27N 40°29' W 074°00'5 5.6
2014-Dec-15 04:30N 40°24' W 073°59'1 0.8
2014-Dec-15 03:03N 40°23' W 073°60'6 6.9
2014-Dec-15 02:12N 40°29' W 074°01'1 0.9
2014-Dec-15 01:12N 40°29' W 074°00'6 3.5
2014-Dec-14 23:26N 40°23' W 073°59'6 5.0
2014-Dec-14 22:13N 40°29' W 074°01'6 3.1
2014-Dec-14 20:15N 40°23' W 073°59'1 1.5
2014-Dec-14 19:26N 40°23' W 074°01'6 5.1
2014-Dec-14 18:19N 40°29' W 074°01'1 0.7
2014-Dec-14 17:13N 40°29' W 074°01'4 6.1
2014-Dec-14 16:30N 40°25' W 073°60'2 0.8
2014-Dec-14 14:22N 40°23' W 074°01'6 4.4
2014-Dec-14 13:04N 40°29' W 074°01'4 2.4
2014-Dec-14 11:21N 40°25' W 073°60'0 0.0
2014-Dec-14 07:10N 40°25' W 073°60'4 2.0
2014-Dec-14 05:08N 40°29' W 074°01'5 2.3
2014-Dec-14 03:09N 40°24' W 073°59'1 0.3
2014-Dec-13 22:32N 40°23' W 073°60'0 0.1
2014-Dec-13 18:33N 40°23' W 074°01'6 4.2
2014-Dec-13 17:09N 40°29' W 074°01'6 2.3
2014-Dec-13 14:30N 40°23' W 073°59'1 0.2
2014-Dec-13 10:20N 40°23' W 074°00'4 2.2
2014-Dec-13 08:21N 40°27' W 073°59'1 0.3
2014-Dec-13 04:34N 40°26' W 073°59'3 0.9
2014-Dec-13 01:04N 40°29' W 074°01'3 1.9
2014-Dec-12 23:31N 40°26' W 074°00'3 0.2
2014-Dec-12 06:23N 40°29' W 073°60'6 2.9
2014-Dec-12 04:23N 40°23' W 073°59'0 0.0
2014-Dec-12 03:27N 40°23' W 073°59'6 6.3
2014-Dec-12 02:32N 40°29' W 073°60'6 2.3
2014-Dec-12 00:03N 40°23' W 073°59'0 0.0
2014-Dec-11 19:33N 40°23' W 073°59'6 4.9
2014-Dec-11 18:19N 40°29' W 074°01'7 7.4
2014-Dec-11 17:23N 40°23' W 073°55'8 8.6
2014-Dec-11 16:30N 40°16' W 073°56'26 8.8
2014-Dec-11 13:33N 39°51' W 074°04'6 6.0
2014-Dec-11 12:34N 39°45' W 074°07'3 3.2
2014-Dec-11 11:33N 39°42' W 074°07'9 8.8
2014-Dec-11 10:34N 39°34' W 074°11'  
Track history (hours):
 
Tides and Currents Weather Stations Pressure Air Temp Water Temp Dewpoint Dewpoint Depression Visibility Wind Speed Wind Dir Waves Ship Positions

Currituck

Last reported at 2014-Dec-19 13:30 UTC. Time now 2014-Dec-19 14:27 UTC.
Position N 40°11' W 074°00'.

Length 45 m; draft 3 m.

Type: Dredging. MMSI: 369970446.

Date/timePositionNaut miles runAvg speedWind from/ knotsBaromVisibWave heightAir tempDewpointWater temp
2014-Dec-19 13:30N 40°11' W 074°00'0 0.0
2014-Dec-19 12:30N 40°11' W 074°00'0 0.0
2014-Dec-19 11:32N 40°11' W 074°00'0 0.0
2014-Dec-19 10:32N 40°11' W 074°00'0 0.0
2014-Dec-19 07:28N 40°11' W 074°00'0 0.0
2014-Dec-19 05:25N 40°11' W 074°00'0 0.2
2014-Dec-19 04:27N 40°11' W 074°01'0 0.0
2014-Dec-19 02:05N 40°11' W 074°00'0 0.0
2014-Dec-19 01:19N 40°11' W 074°01'0 0.0
2014-Dec-19 00:27N 40°11' W 074°00'0 0.0
2014-Dec-18 22:25N 40°11' W 074°01'0 0.0
2014-Dec-18 15:12N 40°11' W 074°00'0 0.0
2014-Dec-18 13:09N 40°11' W 074°00'0 0.0
2014-Dec-18 12:29N 40°11' W 074°00'11 2.1
2014-Dec-18 07:20N 40°22' W 073°59'7 0.3
2014-Dec-17 09:20N 40°29' W 074°01'6 2.8
2014-Dec-17 07:09N 40°23' W 073°59'0 0.2
2014-Dec-17 06:14N 40°23' W 073°59'6 6.0
2014-Dec-17 05:13N 40°29' W 073°60'1 0.2
2014-Dec-17 01:33N 40°29' W 074°01'6 2.9
2014-Dec-16 23:28N 40°23' W 073°59'0 0.0
2014-Dec-16 22:29N 40°23' W 073°59'6 4.8
2014-Dec-16 21:14N 40°29' W 074°01'2 2.5
2014-Dec-16 20:27N 40°28' W 073°59'3 3.1
2014-Dec-16 19:33N 40°25' W 074°00'2 2.1
2014-Dec-16 18:27N 40°23' W 073°59'1 0.2
2014-Dec-16 15:06N 40°23' W 073°60'2 3.2
2014-Dec-16 14:33N 40°25' W 073°60'2 1.7
2014-Dec-16 13:31N 40°26' W 073°59'2 1.7
2014-Dec-16 12:33N 40°26' W 074°01'4 3.4
2014-Dec-16 11:31N 40°23' W 073°59'2 2.1
2014-Dec-16 10:33N 40°25' W 074°00'0 0.2
2014-Dec-16 08:19N 40°25' W 073°60'2 2.0
2014-Dec-16 07:24N 40°23' W 073°59'6 4.5
2014-Dec-16 06:05N 40°29' W 074°01'3 6.2
2014-Dec-16 05:33N 40°26' W 073°59'2 1.2
2014-Dec-16 04:06N 40°24' W 073°59'1 1.6
2014-Dec-16 03:24N 40°23' W 073°59'6 5.8
2014-Dec-16 02:25N 40°29' W 074°01'5 1.3
2014-Dec-15 22:27N 40°24' W 073°59'1 0.5
2014-Dec-15 20:27N 40°25' W 073°60'2 1.5
2014-Dec-15 19:21N 40°26' W 073°59'2 1.3
2014-Dec-15 18:03N 40°25' W 073°60'2 2.4
2014-Dec-15 17:21N 40°23' W 074°00'0 0.4
2014-Dec-15 16:10N 40°23' W 074°01'1 1.5
2014-Dec-15 15:33N 40°23' W 073°60'5 5.0
2014-Dec-15 14:28N 40°28' W 073°59'1 1.4
2014-Dec-15 13:29N 40°29' W 074°01'6 5.3
2014-Dec-15 12:20N 40°23' W 073°59'0 0.0
2014-Dec-15 11:27N 40°23' W 073°59'4 3.8
2014-Dec-15 10:20N 40°27' W 074°01'2 2.4
2014-Dec-15 09:34N 40°26' W 073°59'2 1.5
2014-Dec-15 08:28N 40°25' W 073°60'2 1.7
2014-Dec-15 07:19N 40°23' W 073°59'6 7.0
2014-Dec-15 06:26N 40°29' W 074°00'0 0.2
2014-Dec-15 05:27N 40°29' W 074°00'5 5.6
2014-Dec-15 04:30N 40°24' W 073°59'1 0.8
2014-Dec-15 03:03N 40°23' W 073°60'6 6.9
2014-Dec-15 02:12N 40°29' W 074°01'1 0.9
2014-Dec-15 01:12N 40°29' W 074°00'6 3.5
2014-Dec-14 23:26N 40°23' W 073°59'6 5.0
2014-Dec-14 22:13N 40°29' W 074°01'6 3.1
2014-Dec-14 20:15N 40°23' W 073°59'1 1.5
2014-Dec-14 19:26N 40°23' W 074°01'6 5.1
2014-Dec-14 18:19N 40°29' W 074°01'1 0.7
2014-Dec-14 17:13N 40°29' W 074°01'4 6.1
2014-Dec-14 16:30N 40°25' W 073°60'2 0.8
2014-Dec-14 14:22N 40°23' W 074°01'6 4.4
2014-Dec-14 13:04N 40°29' W 074°01'4 2.4
2014-Dec-14 11:21N 40°25' W 073°60'0 0.0
2014-Dec-14 07:10N 40°25' W 073°60'4 2.0
2014-Dec-14 05:08N 40°29' W 074°01'5 2.3
2014-Dec-14 03:09N 40°24' W 073°59'1 0.3
2014-Dec-13 22:32N 40°23' W 073°60'0 0.1
2014-Dec-13 18:33N 40°23' W 074°01'6 4.2
2014-Dec-13 17:09N 40°29' W 074°01'6 2.3
2014-Dec-13 14:30N 40°23' W 073°59'1 0.2
2014-Dec-13 10:20N 40°23' W 074°00'4 2.2
2014-Dec-13 08:21N 40°27' W 073°59'1 0.3
2014-Dec-13 04:34N 40°26' W 073°59'3 0.9
2014-Dec-13 01:04N 40°29' W 074°01'3 1.9
2014-Dec-12 23:31N 40°26' W 074°00'3 0.2
2014-Dec-12 06:23N 40°29' W 073°60'6 2.9
2014-Dec-12 04:23N 40°23' W 073°59'0 0.0
2014-Dec-12 03:27N 40°23' W 073°59'6 6.3
2014-Dec-12 02:32N 40°29' W 073°60'6 2.3
2014-Dec-12 00:03N 40°23' W 073°59'0 0.0
2014-Dec-11 19:33N 40°23' W 073°59'6 4.9
2014-Dec-11 18:19N 40°29' W 074°01'7 7.4
2014-Dec-11 17:23N 40°23' W 073°55'8 8.6
2014-Dec-11 16:30N 40°16' W 073°56'26 8.8
2014-Dec-11 13:33N 39°51' W 074°04'6 6.0
2014-Dec-11 12:34N 39°45' W 074°07'3 3.2
2014-Dec-11 11:33N 39°42' W 074°07'9 8.8
2014-Dec-11 10:34N 39°34' W 074°11'  

Dump ship's entire track history